Time;durP1;ratioP1;P1;durP2;ratioP2;P2;SDS_P1;SDS_P2;PMS_P1;PMS_P2;Temp;Humidity;BMP_temperature;BMP_pressure;BME280_temperature;BME280_humidity;BME280_pressure;Samples;Min_cycle;Max_cycle;Signal;HPM_P1;HPM_P2
2023/07/01 00:01:20;;;;;;;;;;;;;;;23.50;44.24;100695.94;5065099;28;19935;-71
2023/07/01 00:03:45;;;;;;;;;;;;;;;23.49;44.09;100688.81;5060332;28;19917;-71
2023/07/01 00:06:11;;;;;;;;;;;;;;;23.49;44.12;100689.69;5067405;28;20058;-71
2023/07/01 00:08:36;;;;;;;;;;;;;;;23.49;44.30;100683.41;5062513;28;19951;-71
2023/07/01 00:11:01;;;;;;;;;;;;;;;23.49;44.26;100677.97;5062212;28;19963;-71
2023/07/01 00:13:27;;;;;;;;;;;;;;;23.48;44.25;100682.56;5068919;28;19917;-71
2023/07/01 00:15:53;;;;;;;;;;;;;;;23.47;44.34;100677.34;5037269;28;20000;-71
2023/07/01 00:18:18;;;;;;;;;;;;;;;23.47;44.38;100674.63;5073372;28;19933;-71
2023/07/01 00:20:43;;;;;;;;;;;;;;;23.47;44.22;100671.94;5062137;28;19914;-71
2023/07/01 00:23:09;;;;;;;;;;;;;;;23.47;44.04;100669.22;5041291;28;19920;-71
2023/07/01 00:25:34;;;;;;;;;;;;;;;23.45;44.20;100662.13;5067929;28;19913;-71
2023/07/01 00:27:59;;;;;;;;;;;;;;;23.45;44.47;100659.41;5061904;28;20304;-71
2023/07/01 00:30:24;;;;;;;;;;;;;;;23.46;44.29;100657.53;5062442;28;19916;-71
2023/07/01 00:32:49;;;;;;;;;;;;;;;23.44;44.31;100652.28;5066026;28;19912;-71
2023/07/01 00:35:15;;;;;;;;;;;;;;;23.44;44.38;100649.56;5052342;28;19913;-71
2023/07/01 00:37:40;;;;;;;;;;;;;;;23.43;44.30;100641.66;5060850;28;19916;-71
2023/07/01 00:40:05;;;;;;;;;;;;;;;23.43;44.28;100631.63;5076848;28;19917;-71
2023/07/01 00:42:31;;;;;;;;;;;;;;;23.43;44.25;100631.63;5062368;28;19924;-71
2023/07/01 00:44:56;;;;;;;;;;;;;;;23.43;44.40;100628.09;5067338;28;20324;-71
2023/07/01 00:47:21;;;;;;;;;;;;;;;23.42;44.20;100619.09;5058195;28;19916;-71
2023/07/01 00:49:46;;;;;;;;;;;;;;;23.43;44.39;100619.94;5044896;28;19959;-71
2023/07/01 00:52:11;;;;;;;;;;;;;;;23.42;44.12;100623.69;5055427;28;19923;-71
2023/07/01 00:54:37;;;;;;;;;;;;;;;23.41;44.35;100617.44;5063430;28;19917;-71
2023/07/01 00:57:04;;;;;;;;;;;;;;;23.41;44.23;100612.03;5048071;28;19913;-71
2023/07/01 00:59:32;;;;;;;;;;;;;;;23.41;44.24;100605.75;5067155;28;20369;-71
2023/07/01 01:01:57;;;;;;;;;;;;;;;23.41;44.15;100611.19;5071423;28;19920;-71
2023/07/01 01:04:31;;;;;;;;;;;;;;;23.40;44.18;100610.31;5060467;28;19912;-71
2023/07/01 01:07:08;;;;;;;;;;;;;;;23.40;44.13;100599.47;5075446;28;19917;-71
2023/07/01 01:09:36;;;;;;;;;;;;;;;23.39;43.99;100591.53;5061783;28;20283;-71
2023/07/01 01:12:02;;;;;;;;;;;;;;;23.39;44.11;100592.38;5049720;28;19921;-71
2023/07/01 01:14:27;;;;;;;;;;;;;;;23.39;44.21;100586.13;5070609;28;19924;-71
2023/07/01 01:16:52;;;;;;;;;;;;;;;23.38;44.18;100596.13;5037725;28;20358;-71
2023/07/01 01:19:36;;;;;;;;;;;;;;;23.38;44.20;100588.00;5053484;28;19913;-71
2023/07/01 01:22:24;;;;;;;;;;;;;;;23.37;44.04;100578.19;5042993;28;19951;-71
2023/07/01 01:24:57;;;;;;;;;;;;;;;23.37;44.01;100578.19;5047208;28;19913;-71
2023/07/01 01:27:26;;;;;;;;;;;;;;;23.37;44.13;100566.50;5045556;28;19913;-71
2023/07/01 01:29:51;;;;;;;;;;;;;;;23.36;44.15;100564.81;5063929;28;19976;-71
2023/07/01 01:32:17;;;;;;;;;;;;;;;23.36;44.04;100556.69;5040276;28;19917;-72
2023/07/01 01:34:42;;;;;;;;;;;;;;;23.35;44.17;100553.13;5052518;28;19917;-71
2023/07/01 01:37:11;;;;;;;;;;;;;;;23.35;43.90;100553.13;5040906;28;19914;-71
2023/07/01 01:39:38;;;;;;;;;;;;;;;23.34;43.90;100545.22;5050712;28;19917;-71
2023/07/01 01:42:04;;;;;;;;;;;;;;;23.34;43.97;100545.22;5046494;28;20015;-71
2023/07/01 01:44:47;;;;;;;;;;;;;;;23.34;43.88;100547.94;5038324;28;20639;-71
2023/07/01 01:47:17;;;;;;;;;;;;;;;23.34;43.97;100553.34;5050689;28;20004;-71
2023/07/01 01:49:43;;;;;;;;;;;;;;;23.34;43.99;100545.22;5042928;28;19952;-71
2023/07/01 01:52:10;;;;;;;;;;;;;;;23.32;43.95;100537.28;5049002;28;19924;-71
2023/07/01 01:54:35;;;;;;;;;;;;;;;23.32;44.14;100537.28;5060401;28;19917;-71
2023/07/01 01:57:01;;;;;;;;;;;;;;;23.32;43.90;100541.84;5047935;28;19928;-71
2023/07/01 01:59:26;;;;;;;;;;;;;;;23.31;44.02;100527.47;5044119;28;19917;-71
2023/07/01 02:01:51;;;;;;;;;;;;;;;23.31;44.17;100527.47;5051720;28;19917;-71
2023/07/01 02:04:17;;;;;;;;;;;;;;;23.31;43.98;100527.47;5038521;28;19920;-71
2023/07/01 02:06:42;;;;;;;;;;;;;;;23.31;43.92;100530.19;5047448;28;20045;-71
2023/07/01 02:09:07;;;;;;;;;;;;;;;23.30;43.79;100523.09;5064038;28;19914;-71
2023/07/01 02:11:32;;;;;;;;;;;;;;;23.30;44.02;100522.25;5052353;28;19924;-71
2023/07/01 02:13:57;;;;;;;;;;;;;;;23.29;43.96;100516.00;5056225;28;20012;-71
2023/07/01 02:16:23;;;;;;;;;;;;;;;23.29;43.98;100513.28;5043488;28;19917;-71
2023/07/01 02:18:48;;;;;;;;;;;;;;;23.30;43.83;100505.97;5066632;28;19967;-71
2023/07/01 02:21:13;;;;;;;;;;;;;;;23.29;43.84;100505.16;5053966;28;19913;-71
2023/07/01 02:23:38;;;;;;;;;;;;;;;23.28;43.72;100500.78;5048108;28;19912;-71
2023/07/01 02:26:04;;;;;;;;;;;;;;;23.30;43.58;100504.09;5064538;28;20011;-71
2023/07/01 02:28:29;;;;;;;;;;;;;;;23.28;43.96;100497.19;5066641;28;19919;-71
2023/07/01 02:30:54;;;;;;;;;;;;;;;23.28;44.11;100497.19;5060846;28;19916;-71
2023/07/01 02:33:19;;;;;;;;;;;;;;;23.28;43.75;100497.19;5045846;28;20293;-71
2023/07/01 02:35:45;;;;;;;;;;;;;;;23.27;43.74;100500.97;5072137;28;20003;-71
2023/07/01 02:38:10;;;;;;;;;;;;;;;23.26;43.82;100489.28;5055797;28;19920;-71
2023/07/01 02:40:36;;;;;;;;;;;;;;;23.27;44.06;100487.41;5054478;28;19913;-71
2023/07/01 02:43:01;;;;;;;;;;;;;;;23.27;43.83;100500.97;5064221;28;19917;-71
2023/07/01 02:45:26;;;;;;;;;;;;;;;23.27;43.86;100488.22;5060157;28;20374;-71
2023/07/01 02:47:51;;;;;;;;;;;;;;;23.27;43.68;100481.97;5068813;28;19923;-71
2023/07/01 02:50:16;;;;;;;;;;;;;;;23.26;43.92;100478.44;5064053;28;19916;-71
2023/07/01 02:52:42;;;;;;;;;;;;;;;23.25;43.62;100482.19;5060214;28;19920;-71
2023/07/01 02:55:08;;;;;;;;;;;;;;;23.26;43.82;100480.31;5065742;28;20273;-71
2023/07/01 02:57:33;;;;;;;;;;;;;;;23.26;43.76;100477.59;5067343;28;20016;-71
2023/07/01 02:59:58;;;;;;;;;;;;;;;23.25;43.77;100476.78;5038875;28;19916;-71
2023/07/01 03:02:24;;;;;;;;;;;;;;;23.25;43.57;100473.22;5072387;28;20006;-71
2023/07/01 03:04:49;;;;;;;;;;;;;;;23.26;43.63;100464.03;5051658;28;19935;-71
2023/07/01 03:07:14;;;;;;;;;;;;;;;23.25;43.85;100474.06;5068108;28;19923;-71
2023/07/01 03:09:39;;;;;;;;;;;;;;;23.25;43.77;100465.91;5049970;28;19917;-71
2023/07/01 03:12:05;;;;;;;;;;;;;;;23.24;43.63;100460.72;5058099;28;20007;-71
2023/07/01 03:14:30;;;;;;;;;;;;;;;23.24;43.67;100456.13;5051731;28;19921;-71
2023/07/01 03:16:55;;;;;;;;;;;;;;;23.23;43.90;100459.84;5060124;28;19921;-71
2023/07/01 03:19:22;;;;;;;;;;;;;;;23.24;43.54;100458.00;5063263;28;19959;-71
2023/07/01 03:21:48;;;;;;;;;;;;;;;23.23;43.87;100454.44;5066810;28;19945;-71
2023/07/01 03:24:13;;;;;;;;;;;;;;;23.22;43.62;100439.19;5065414;28;19916;-71
2023/07/01 03:26:38;;;;;;;;;;;;;;;23.23;43.53;100440.88;5041094;28;19924;-71
2023/07/01 03:29:03;;;;;;;;;;;;;;;23.22;43.87;100439.19;5070878;28;19920;-71
2023/07/01 03:31:28;;;;;;;;;;;;;;;23.22;43.52;100439.19;5045206;28;19913;-71
2023/07/01 03:33:54;;;;;;;;;;;;;;;23.22;43.82;100428.34;5058126;28;20381;-71
2023/07/01 03:36:19;;;;;;;;;;;;;;;23.22;43.66;100428.34;5070618;28;19925;-71
2023/07/01 03:38:44;;;;;;;;;;;;;;;23.22;43.63;100425.63;5055379;28;19913;-71
2023/07/01 03:41:09;;;;;;;;;;;;;;;23.22;43.93;100413.97;5070627;28;19913;-71
2023/07/01 03:43:34;;;;;;;;;;;;;;;23.21;43.61;100415.84;5062900;28;19924;-71
2023/07/01 03:46:00;;;;;;;;;;;;;;;23.20;43.89;100420.44;5062785;28;19940;-72
2023/07/01 03:48:25;;;;;;;;;;;;;;;23.20;43.87;100420.44;5047272;28;19913;-71
2023/07/01 03:50:50;;;;;;;;;;;;;;;23.19;43.73;100410.63;5066610;28;19919;-71
2023/07/01 03:53:15;;;;;;;;;;;;;;;23.20;43.76;100397.91;5043876;28;19917;-71
2023/07/01 03:55:41;;;;;;;;;;;;;;;23.20;43.92;100400.63;5064278;28;19922;-71
2023/07/01 03:58:06;;;;;;;;;;;;;;;23.19;43.68;100407.94;5066942;28;19919;-71
2023/07/01 04:00:31;;;;;;;;;;;;;;;23.19;44.03;100401.63;5049994;28;19924;-71
2023/07/01 04:03:05;;;;;;;;;;;;;;;23.19;43.84;100399.78;5074217;28;19923;-71
2023/07/01 04:05:31;;;;;;;;;;;;;;;23.18;43.81;100387.25;5047925;28;19917;-71
2023/07/01 04:07:56;;;;;;;;;;;;;;;23.18;43.80;100387.25;5064700;28;19923;-71
2023/07/01 04:10:21;;;;;;;;;;;;;;;23.17;43.88;100380.16;5065689;28;20293;-71
2023/07/01 04:12:46;;;;;;;;;;;;;;;23.17;43.74;100380.16;5059512;28;19913;-71
2023/07/01 04:15:12;;;;;;;;;;;;;;;23.17;43.78;100368.50;5066776;28;20291;-71
2023/07/01 04:17:39;;;;;;;;;;;;;;;23.18;43.92;100367.44;5061947;28;19925;-71
2023/07/01 04:20:06;;;;;;;;;;;;;;;23.16;43.74;100373.09;5061466;28;19913;-71
2023/07/01 04:22:31;;;;;;;;;;;;;;;23.17;43.83;100363.06;5062013;28;19913;-71
2023/07/01 04:24:56;;;;;;;;;;;;;;;23.17;44.02;100368.50;5069512;28;19920;-71
2023/07/01 04:27:21;;;;;;;;;;;;;;;23.16;43.82;100372.25;5055913;28;20019;-71
2023/07/01 04:29:46;;;;;;;;;;;;;;;23.17;43.87;100371.19;5072403;28;19913;-71
2023/07/01 04:32:11;;;;;;;;;;;;;;;23.16;43.94;100364.13;5060727;28;19924;-71
2023/07/01 04:34:37;;;;;;;;;;;;;;;23.15;43.75;100355.16;5059363;28;20011;-71
2023/07/01 04:37:02;;;;;;;;;;;;;;;23.15;43.87;100365.13;5055519;28;20391;-71
2023/07/01 04:39:27;;;;;;;;;;;;;;;23.15;43.92;100363.28;5057873;28;19912;-71
2023/07/01 04:41:52;;;;;;;;;;;;;;;23.15;44.06;100359.72;5065403;28;20003;-71
2023/07/01 04:44:18;;;;;;;;;;;;;;;23.13;43.87;100350.97;5061225;28;19917;-71
2023/07/01 04:46:43;;;;;;;;;;;;;;;23.14;44.00;100356.16;5064966;28;20039;-71
2023/07/01 04:49:09;;;;;;;;;;;;;;;23.15;43.88;100357.88;5059148;28;19924;-71
2023/07/01 04:51:34;;;;;;;;;;;;;;;23.13;44.03;100357.22;5067638;28;20369;-71
2023/07/01 04:54:00;;;;;;;;;;;;;;;23.14;44.04;100358.06;5056883;28;20062;-71
2023/07/01 04:56:26;;;;;;;;;;;;;;;23.13;44.17;100365.34;5065796;28;19940;-71
2023/07/01 04:58:51;;;;;;;;;;;;;;;23.12;44.18;100352.84;5053843;28;19963;-71
2023/07/01 05:01:16;;;;;;;;;;;;;;;23.12;44.12;100354.72;5053844;28;19916;-71
2023/07/01 05:03:41;;;;;;;;;;;;;;;23.12;43.93;100352.84;5054965;28;19917;-71
2023/07/01 05:06:07;;;;;;;;;;;;;;;23.13;44.00;100353.69;5038584;28;19981;-71
2023/07/01 05:08:32;;;;;;;;;;;;;;;23.12;43.95;100347.44;5065069;28;19913;-71
2023/07/01 05:10:57;;;;;;;;;;;;;;;23.12;44.18;100349.31;5065011;28;19913;-71
2023/07/01 05:13:22;;;;;;;;;;;;;;;23.11;44.18;100348.47;5061275;28;20373;-71
2023/07/01 05:15:47;;;;;;;;;;;;;;;23.11;44.17;100344.94;5049100;28;19924;-71
2023/07/01 05:18:13;;;;;;;;;;;;;;;23.11;43.94;100340.34;5065031;28;19927;-71
2023/07/01 05:20:38;;;;;;;;;;;;;;;23.11;44.17;100339.50;5063700;28;20645;-71
2023/07/01 05:23:03;;;;;;;;;;;;;;;23.11;44.14;100332.22;5065711;28;19913;-71
2023/07/01 05:25:28;;;;;;;;;;;;;;;23.11;44.46;100342.22;5073336;28;19949;-71
2023/07/01 05:27:53;;;;;;;;;;;;;;;23.11;44.39;100342.22;5055719;28;19984;-71
2023/07/01 05:30:19;;;;;;;;;;;;;;;23.10;44.22;100335.09;5073557;28;19977;-71
2023/07/01 05:32:44;;;;;;;;;;;;;;;23.09;44.44;100330.75;5064909;28;19916;-71
2023/07/01 05:35:09;;;;;;;;;;;;;;;23.11;44.33;100342.22;5061128;28;19927;-71
2023/07/01 05:37:34;;;;;;;;;;;;;;;23.09;44.51;100331.56;5072135;28;19923;-70
2023/07/01 05:39:59;;;;;;;;;;;;;;;23.09;44.31;100336.16;5063097;28;19952;-71
2023/07/01 05:42:24;;;;;;;;;;;;;;;23.08;44.37;100338.03;5048189;28;19955;-71
2023/07/01 05:44:50;;;;;;;;;;;;;;;23.09;44.47;100330.75;5065076;28;20023;-71
2023/07/01 05:47:15;;;;;;;;;;;;;;;23.08;44.51;100335.34;5068160;28;19912;-71
2023/07/01 05:49:40;;;;;;;;;;;;;;;23.08;44.20;100335.34;5061123;28;20309;-71
2023/07/01 05:52:06;;;;;;;;;;;;;;;23.08;44.32;100337.22;5072684;28;20368;-71
2023/07/01 05:54:31;;;;;;;;;;;;;;;23.08;44.25;100339.91;5062226;28;19945;-71
2023/07/01 05:56:56;;;;;;;;;;;;;;;23.08;44.40;100334.50;5066309;28;19920;-71
2023/07/01 05:59:21;;;;;;;;;;;;;;;23.07;44.44;100339.09;5068283;28;19913;-71
2023/07/01 06:01:46;;;;;;;;;;;;;;;23.08;44.42;100339.91;5057278;28;19920;-71
2023/07/01 06:04:12;;;;;;;;;;;;;;;23.06;44.59;100337.41;5054536;28;19920;-70
2023/07/01 06:06:38;;;;;;;;;;;;;;;23.07;44.51;100330.97;5060176;28;19913;-71
2023/07/01 06:09:04;;;;;;;;;;;;;;;23.07;44.50;100330.13;5062162;28;20006;-71
2023/07/01 06:11:29;;;;;;;;;;;;;;;23.07;44.28;100330.97;5049945;28;19917;-71
2023/07/01 06:13:55;;;;;;;;;;;;;;;23.05;44.71;100322.19;5067211;28;19921;-70
2023/07/01 06:16:20;;;;;;;;;;;;;;;23.06;44.73;100321.13;5042757;28;19984;-70
2023/07/01 06:18:45;;;;;;;;;;;;;;;23.06;44.54;100325.72;5070198;28;19917;-71
2023/07/01 06:21:10;;;;;;;;;;;;;;;23.05;44.68;100314.06;5064195;28;19920;-71
2023/07/01 06:23:36;;;;;;;;;;;;;;;23.06;44.52;100320.31;5063911;28;20331;-71
2023/07/01 06:26:01;;;;;;;;;;;;;;;23.05;44.70;100322.19;5070332;28;19948;-71
2023/07/01 06:28:27;;;;;;;;;;;;;;;23.05;44.86;100322.19;5038169;28;19917;-71
2023/07/01 06:30:52;;;;;;;;;;;;;;;23.05;44.71;100322.19;5074592;28;19953;-71
2023/07/01 06:33:17;;;;;;;;;;;;;;;23.05;44.88;100310.50;5062933;28;19964;-71
2023/07/01 06:35:43;;;;;;;;;;;;;;;23.04;44.68;100322.41;5063717;28;19919;-71
2023/07/01 06:38:08;;;;;;;;;;;;;;;23.04;44.66;100322.41;5068999;28;20291;-71
2023/07/01 06:40:33;;;;;;;;;;;;;;;23.04;45.01;100319.69;5067772;28;19936;-71
2023/07/01 06:42:59;;;;;;;;;;;;;;;23.03;45.04;100320.75;5059168;28;19999;-71
2023/07/01 06:45:24;;;;;;;;;;;;;;;23.03;44.83;100316.16;5071237;28;19912;-70
2023/07/01 06:47:49;;;;;;;;;;;;;;;23.03;44.80;100328.88;5067212;28;19913;-71
2023/07/01 06:50:14;;;;;;;;;;;;;;;23.03;44.84;100318.03;5058523;28;19917;-71
2023/07/01 06:52:39;;;;;;;;;;;;;;;23.02;44.67;100311.75;5074164;28;19920;-71
2023/07/01 06:55:05;;;;;;;;;;;;;;;23.03;44.66;100312.63;5056274;28;19975;-71
2023/07/01 06:57:30;;;;;;;;;;;;;;;23.02;45.03;100314.47;5065014;28;19967;-71
2023/07/01 06:59:55;;;;;;;;;;;;;;;23.02;45.14;100311.75;5066029;28;19917;-71
2023/07/01 07:02:20;;;;;;;;;;;;;;;23.02;44.88;100305.50;5044440;28;20028;-71
2023/07/01 07:04:46;;;;;;;;;;;;;;;23.02;44.93;100314.47;5066903;28;19979;-71
2023/07/01 07:07:11;;;;;;;;;;;;;;;23.02;45.19;100310.91;5065360;28;19917;-71
2023/07/01 07:09:36;;;;;;;;;;;;;;;23.02;45.10;100309.03;5063300;28;19952;-71
2023/07/01 07:12:01;;;;;;;;;;;;;;;23.02;45.21;100313.63;5064160;28;19976;-71
2023/07/01 07:14:26;;;;;;;;;;;;;;;23.02;45.02;100298.19;5067831;28;19947;-71
2023/07/01 07:16:52;;;;;;;;;;;;;;;23.01;44.91;100307.38;5054966;28;19935;-71
2023/07/01 07:19:18;;;;;;;;;;;;;;;23.02;45.18;100308.22;5070872;28;19944;-71
2023/07/01 07:21:43;;;;;;;;;;;;;;;23.02;45.25;100303.63;5045061;28;19920;-72
2023/07/01 07:24:08;;;;;;;;;;;;;;;23.02;45.34;100295.47;5064627;28;20263;-71
2023/07/01 07:26:33;;;;;;;;;;;;;;;23.03;45.06;100299.06;5070835;28;20321;-71
2023/07/01 07:28:59;;;;;;;;;;;;;;;23.02;45.09;100291.94;5059109;28;19912;-71
2023/07/01 07:31:24;;;;;;;;;;;;;;;23.02;45.14;100303.63;5067735;28;19948;-71
2023/07/01 07:33:49;;;;;;;;;;;;;;;23.03;45.29;100301.78;5062400;28;19917;-71
2023/07/01 07:36:14;;;;;;;;;;;;;;;23.02;45.45;100305.50;5066451;28;19920;-71
2023/07/01 07:38:39;;;;;;;;;;;;;;;23.02;45.00;100298.19;5062795;28;20419;-71
2023/07/01 07:41:05;;;;;;;;;;;;;;;23.02;45.08;100300.06;5066092;28;19936;-71
2023/07/01 07:43:30;;;;;;;;;;;;;;;23.03;45.23;100304.47;5038993;28;20007;-71
2023/07/01 07:45:55;;;;;;;;;;;;;;;23.01;45.10;100301.97;5055250;28;19916;-71
2023/07/01 07:48:20;;;;;;;;;;;;;;;23.01;45.30;100298.41;5065241;28;19913;-71
2023/07/01 07:50:46;;;;;;;;;;;;;;;23.01;45.38;100296.53;5057798;28;19912;-71
2023/07/01 07:53:13;;;;;;;;;;;;;;;23.01;45.23;100298.41;5071611;28;19928;-71
2023/07/01 07:55:39;;;;;;;;;;;;;;;23.00;45.42;100294.88;5055818;28;20301;-71
2023/07/01 07:58:04;;;;;;;;;;;;;;;23.01;45.41;100301.13;5051294;28;19913;-71
2023/07/01 08:00:29;;;;;;;;;;;;;;;22.99;45.13;100298.63;5065686;28;19913;-71
2023/07/01 08:02:54;;;;;;;;;;;;;;;23.00;45.44;100296.75;5060469;28;19913;-71
2023/07/01 08:05:21;;;;;;;;;;;;;;;23.00;45.36;100294.03;5063402;28;19944;-71
2023/07/01 08:07:47;;;;;;;;;;;;;;;23.00;45.61;100296.75;5048584;28;20027;-71
2023/07/01 08:10:12;;;;;;;;;;;;;;;23.00;45.44;100294.03;5060414;28;19924;-71
2023/07/01 08:12:37;;;;;;;;;;;;;;;22.99;45.43;100295.94;5065473;28;20027;-71
2023/07/01 08:15:02;;;;;;;;;;;;;;;22.99;45.31;100287.78;5069214;28;19916;-71
2023/07/01 08:17:28;;;;;;;;;;;;;;;23.00;45.40;100285.91;5042347;28;19921;-71
2023/07/01 08:19:53;;;;;;;;;;;;;;;22.99;45.76;100289.69;5055887;28;19924;-71
2023/07/01 08:22:18;;;;;;;;;;;;;;;22.99;45.62;100289.69;5041195;28;19936;-71
2023/07/01 08:24:43;;;;;;;;;;;;;;;22.98;45.69;100293.41;5036908;28;19913;-71
2023/07/01 08:27:09;;;;;;;;;;;;;;;22.98;45.54;100280.72;5064595;28;19920;-71
2023/07/01 08:29:34;;;;;;;;;;;;;;;22.98;45.39;100286.13;5040991;28;19913;-71
2023/07/01 08:31:59;;;;;;;;;;;;;;;22.98;45.45;100291.56;5045727;28;19913;-70
2023/07/01 08:34:24;;;;;;;;;;;;;;;22.99;45.63;100292.38;5042928;28;19924;-70
2023/07/01 08:36:49;;;;;;;;;;;;;;;22.99;45.32;100286.97;5045554;28;19913;-71
2023/07/01 08:39:15;;;;;;;;;;;;;;;22.99;45.57;100279.66;5039534;28;20007;-71
2023/07/01 08:41:42;;;;;;;;;;;;;;;22.98;45.41;100286.13;5051452;28;19920;-71
2023/07/01 08:44:08;;;;;;;;;;;;;;;22.98;45.37;100285.28;5052185;28;19952;-71
2023/07/01 08:46:33;;;;;;;;;;;;;;;22.98;45.76;100283.44;5045393;28;20281;-71
2023/07/01 08:48:58;;;;;;;;;;;;;;;22.98;45.55;100278.00;5060774;28;19975;-71
2023/07/01 08:51:35;;;;;;;;;;;;;;;22.98;45.64;100278.00;5037528;28;19913;-71
2023/07/01 08:54:00;;;;;;;;;;;;;;;22.98;45.56;100288.84;5047147;28;19927;-70
2023/07/01 08:56:25;;;;;;;;;;;;;;;22.98;45.67;100279.84;5059673;28;19944;-71
2023/07/01 08:58:51;;;;;;;;;;;;;;;22.97;45.93;100275.47;5046395;28;19913;-71
2023/07/01 09:01:16;;;;;;;;;;;;;;;22.97;45.69;100272.78;5048164;28;20605;-71
2023/07/01 09:03:41;;;;;;;;;;;;;;;22.95;45.52;100273.81;5049437;28;19921;-70
2023/07/01 09:06:07;;;;;;;;;;;;;;;22.97;45.93;100268.19;5050394;28;19920;-71
2023/07/01 09:08:33;;;;;;;;;;;;;;;22.97;45.64;100273.59;5052948;28;19920;-73
2023/07/01 09:10:58;;;;;;;;;;;;;;;22.98;45.82;100271.72;5059573;28;19917;-73
2023/07/01 09:13:24;;;;;;;;;;;;;;;22.95;45.81;100271.09;5047478;28;19927;-73
2023/07/01 09:15:50;;;;;;;;;;;;;;;22.96;45.86;100277.38;5045520;28;19913;-70
2023/07/01 09:18:25;;;;;;;;;;;;;;;22.97;45.71;100281.72;5037793;28;19981;-73
2023/07/01 09:20:51;;;;;;;;;;;;;;;22.97;46.11;100275.47;5050356;28;19920;-71
2023/07/01 09:23:28;;;;;;;;;;;;;;;22.95;46.15;100268.41;5042522;28;19913;-70
2023/07/01 09:26:05;;;;;;;;;;;;;;;22.94;46.24;100266.75;5045953;28;19919;-70
2023/07/01 09:28:30;;;;;;;;;;;;;;;22.95;46.06;100264.84;5047085;28;19921;-71
2023/07/01 09:30:59;;;;;;;;;;;;;;;22.95;46.11;100264.84;5047394;28;19913;-71
2023/07/01 09:33:24;;;;;;;;;;;;;;;22.94;46.25;100260.50;5042729;28;19995;-71
2023/07/01 09:35:55;;;;;;;;;;;;;;;22.94;46.20;100263.19;5049561;28;20362;-71
2023/07/01 09:38:21;;;;;;;;;;;;;;;22.94;46.38;100260.50;5049013;28;19913;-73
2023/07/01 09:40:46;;;;;;;;;;;;;;;22.93;46.45;100254.19;5050196;28;20274;-71
2023/07/01 09:43:11;;;;;;;;;;;;;;;22.93;46.44;100256.09;5049853;28;19912;-71
2023/07/01 09:45:36;;;;;;;;;;;;;;;22.93;46.36;100256.91;5032562;28;19916;-71
2023/07/01 09:48:09;;;;;;;;;;;;;;;22.92;46.19;100252.53;5056351;28;19957;-71
2023/07/01 09:50:35;;;;;;;;;;;;;;;22.92;46.20;100252.53;5041204;28;19917;-70
2023/07/01 09:53:00;;;;;;;;;;;;;;;22.92;46.46;100252.53;5043009;28;19996;-71
2023/07/01 09:55:26;;;;;;;;;;;;;;;22.93;46.21;100253.38;5048769;28;19960;-71
2023/07/01 09:57:52;;;;;;;;;;;;;;;22.93;46.44;100250.66;5033724;28;19953;-71
2023/07/01 10:00:17;;;;;;;;;;;;;;;22.92;46.42;100249.00;5045482;28;20286;-71
2023/07/01 10:02:46;;;;;;;;;;;;;;;22.92;46.45;100249.84;5063998;28;20426;-70
2023/07/01 10:05:12;;;;;;;;;;;;;;;22.92;46.56;100243.59;5043494;28;20385;-70
2023/07/01 10:07:38;;;;;;;;;;;;;;;22.92;46.46;100244.41;5042492;28;19913;-71
2023/07/01 10:10:03;;;;;;;;;;;;;;;22.93;46.59;100242.53;5051932;28;19917;-71
2023/07/01 10:12:28;;;;;;;;;;;;;;;22.92;46.58;100239.00;5036238;28;19917;-70
2023/07/01 10:14:53;;;;;;;;;;;;;;;22.92;46.59;100236.28;5055855;28;19921;-70
2023/07/01 10:17:19;;;;;;;;;;;;;;;22.92;46.26;100236.28;5059556;28;19929;-70
2023/07/01 10:19:46;;;;;;;;;;;;;;;22.93;46.37;100234.41;5041460;28;19920;-71
2023/07/01 10:22:17;;;;;;;;;;;;;;;22.92;46.60;100230.84;5051900;28;19913;-70
2023/07/01 10:24:42;;;;;;;;;;;;;;;22.93;46.68;100231.69;5044877;28;19917;-71
2023/07/01 10:27:08;;;;;;;;;;;;;;;22.93;46.62;100228.97;5058770;28;19959;-71
2023/07/01 10:29:34;;;;;;;;;;;;;;;22.93;46.52;100232.53;5062427;28;19917;-71
2023/07/01 10:32:08;;;;;;;;;;;;;;;22.93;46.35;100231.69;5047166;28;19924;-71
2023/07/01 10:34:52;;;;;;;;;;;;;;;22.93;46.47;100234.41;5041603;28;19967;-71
2023/07/01 10:37:17;;;;;;;;;;;;;;;22.94;46.34;100238.81;5050890;28;19920;-71
2023/07/01 10:39:42;;;;;;;;;;;;;;;22.93;46.38;100228.97;5035309;28;19917;-71
2023/07/01 10:42:09;;;;;;;;;;;;;;;22.93;46.59;100231.69;5052582;28;20285;-71
2023/07/01 10:44:34;;;;;;;;;;;;;;;22.93;46.54;100234.41;5058531;28;19913;-70
2023/07/01 10:47:12;;;;;;;;;;;;;;;22.93;46.63;100232.53;5040318;28;19946;-71
2023/07/01 10:49:40;;;;;;;;;;;;;;;22.93;46.55;100227.09;5046662;28;20394;-71
2023/07/01 10:52:05;;;;;;;;;;;;;;;22.92;46.70;100236.28;5058740;28;19920;-71
2023/07/01 10:54:37;;;;;;;;;;;;;;;22.93;46.45;100228.97;5059576;28;19917;-70
2023/07/01 10:57:10;;;;;;;;;;;;;;;22.93;46.52;100223.56;5051655;28;20297;-71
2023/07/01 10:59:35;;;;;;;;;;;;;;;22.93;46.72;100223.56;5058852;28;19914;-70
2023/07/01 11:02:00;;;;;;;;;;;;;;;22.93;46.67;100223.56;5041207;28;19924;-71
2023/07/01 11:04:44;;;;;;;;;;;;;;;22.93;46.39;100223.56;5051552;28;19924;-70
2023/07/01 11:07:10;;;;;;;;;;;;;;;22.93;46.44;100226.25;5035347;28;20003;-71
2023/07/01 11:09:35;;;;;;;;;;;;;;;22.93;46.49;100224.38;5055742;28;20002;-71
2023/07/01 11:12:01;;;;;;;;;;;;;;;22.93;46.27;100220.84;5042211;28;19917;-71
2023/07/01 11:14:37;;;;;;;;;;;;;;;22.93;46.44;100218.13;5044508;28;19967;-71
2023/07/01 11:17:09;;;;;;;;;;;;;;;22.92;46.67;100214.59;5051965;28;19921;-70
2023/07/01 11:19:34;;;;;;;;;;;;;;;22.93;46.46;100216.25;5043172;28;19917;-70
2023/07/01 11:22:01;;;;;;;;;;;;;;;22.93;46.51;100215.44;5068679;28;19927;-71
2023/07/01 11:24:26;;;;;;;;;;;;;;;22.94;46.58;100219.81;5062575;28;19917;-71
2023/07/01 11:26:51;;;;;;;;;;;;;;;22.94;46.57;100211.69;5050805;28;19985;-71
2023/07/01 11:29:17;;;;;;;;;;;;;;;22.94;46.68;100214.41;5042662;28;19920;-70
2023/07/01 11:31:42;;;;;;;;;;;;;;;22.93;46.19;100210.84;5071157;28;19927;-71
2023/07/01 11:34:07;;;;;;;;;;;;;;;22.94;46.63;100203.56;5054884;28;19944;-70
2023/07/01 11:36:36;;;;;;;;;;;;;;;22.94;46.43;100206.28;5057844;28;20384;-70
2023/07/01 11:39:04;;;;;;;;;;;;;;;22.94;46.57;100206.28;5062614;28;19913;-71
2023/07/01 11:41:29;;;;;;;;;;;;;;;22.93;46.58;100213.53;5061548;28;19917;-71
2023/07/01 11:43:55;;;;;;;;;;;;;;;22.94;46.59;100208.97;5070157;28;19969;-70
2023/07/01 11:46:30;;;;;;;;;;;;;;;22.94;46.72;100208.97;5058553;28;19913;-71
2023/07/01 11:48:56;;;;;;;;;;;;;;;22.93;46.72;100213.53;5065097;28;20004;-72
2023/07/01 11:51:39;;;;;;;;;;;;;;;22.94;46.87;100223.38;5060760;28;19917;-71
2023/07/01 11:54:05;;;;;;;;;;;;;;;22.93;46.75;100213.53;5062103;28;19921;-72
2023/07/01 11:56:30;;;;;;;;;;;;;;;22.93;46.90;100221.69;5062173;28;19920;-71
2023/07/01 11:58:55;;;;;;;;;;;;;;;22.94;46.92;100211.69;5069713;28;19917;-72
2023/07/01 12:01:24;;;;;;;;;;;;;;;22.94;46.81;100222.53;5055538;28;19935;-72
2023/07/01 12:03:49;;;;;;;;;;;;;;;22.93;46.49;100218.13;5053638;28;19913;-71
2023/07/01 12:06:18;;;;;;;;;;;;;;;22.93;46.92;100227.09;5062032;28;19917;-71
2023/07/01 12:08:50;;;;;;;;;;;;;;;22.93;46.88;100227.09;5058455;28;19987;-71
2023/07/01 12:11:16;;;;;;;;;;;;;;;22.94;47.06;100230.66;5069163;28;19919;-72
2023/07/01 12:13:41;;;;;;;;;;;;;;;22.93;46.99;100218.13;5056105;28;19921;-72
2023/07/01 12:16:06;;;;;;;;;;;;;;;22.94;46.92;100223.38;5069304;28;19916;-71
2023/07/01 12:18:32;;;;;;;;;;;;;;;22.94;46.95;100220.66;5061364;28;19932;-71
2023/07/01 12:20:57;;;;;;;;;;;;;;;22.95;46.75;100218.78;5064958;28;19920;-71
2023/07/01 12:23:22;;;;;;;;;;;;;;;22.95;46.75;100226.91;5063366;28;20421;-71
2023/07/01 12:25:48;;;;;;;;;;;;;;;22.97;47.18;100229.41;5067539;28;19913;-72
2023/07/01 12:28:13;;;;;;;;;;;;;;;22.97;47.09;100226.69;5057574;28;19913;-72
2023/07/01 12:30:38;;;;;;;;;;;;;;;22.97;47.12;100222.09;5066789;28;19912;-72